Weather at Iota Volunteer Fire Department Heliport

Public forecast

Using degrees Fahrenheit for public forecast. Weather courtesy of forecast.io.

Closest aviation weather report (METAR) to Iota Volunteer Fire Department Heliport

Closest report is Jennings Airport, 10.5 nm (19.5 km) WSW. Retrieved 2020/10/30 09:35 UTC (0 seconds ago):

K3R7 300935Z AUTO 01011G16KT 10SM BKN019 BKN024 10/09 A3016 RMK AO2 T01020090

Closest aviation forecast (TAF) to Iota Volunteer Fire Department Heliport

Closest forecast is Lafayette Regional Airport, 27.5 nm (50.8 km) ESE. Retrieved 2020/10/30 06:22 UTC (3 hours ago):

TAF KLFT 300520Z 3006/3106 34011KT P6SM SCT025 FM301000 01009KT P6SM FEW030 FM301500 04013G21KT P6SM SKC